sensor_id;sensor_type;location;lat;lon;timestamp;P1;durP1;ratioP1;P2;durP2;ratioP2
12122;SDS011;6125;59.628;17.852;2024-02-23T00:00:21;28.03;;;13.63;;
12122;SDS011;6125;59.628;17.852;2024-02-23T00:02:55;28.37;;;14.10;;
12122;SDS011;6125;59.628;17.852;2024-02-23T00:05:24;28.47;;;13.60;;
12122;SDS011;6125;59.628;17.852;2024-02-23T00:07:54;29.70;;;13.23;;
12122;SDS011;6125;59.628;17.852;2024-02-23T00:10:28;24.67;;;13.43;;
12122;SDS011;6125;59.628;17.852;2024-02-23T00:12:57;32.27;;;12.97;;
12122;SDS011;6125;59.628;17.852;2024-02-23T00:15:26;29.50;;;15.00;;
12122;SDS011;6125;59.628;17.852;2024-02-23T00:18:00;27.30;;;13.40;;
12122;SDS011;6125;59.628;17.852;2024-02-23T00:20:30;26.13;;;13.10;;
12122;SDS011;6125;59.628;17.852;2024-02-23T00:23:00;26.37;;;13.93;;
12122;SDS011;6125;59.628;17.852;2024-02-23T00:25:35;30.53;;;13.17;;
12122;SDS011;6125;59.628;17.852;2024-02-23T00:28:04;27.63;;;12.73;;
12122;SDS011;6125;59.628;17.852;2024-02-23T00:30:32;30.60;;;13.63;;
12122;SDS011;6125;59.628;17.852;2024-02-23T00:33:07;33.57;;;13.80;;
12122;SDS011;6125;59.628;17.852;2024-02-23T00:35:36;27.10;;;13.40;;
12122;SDS011;6125;59.628;17.852;2024-02-23T00:38:06;28.83;;;14.00;;
12122;SDS011;6125;59.628;17.852;2024-02-23T00:40:41;29.30;;;13.83;;
12122;SDS011;6125;59.628;17.852;2024-02-23T00:43:09;25.17;;;14.00;;
12122;SDS011;6125;59.628;17.852;2024-02-23T00:45:38;23.73;;;12.23;;
12122;SDS011;6125;59.628;17.852;2024-02-23T00:48:12;26.10;;;13.17;;
12122;SDS011;6125;59.628;17.852;2024-02-23T00:50:41;23.90;;;12.33;;
12122;SDS011;6125;59.628;17.852;2024-02-23T00:53:12;24.37;;;12.90;;
12122;SDS011;6125;59.628;17.852;2024-02-23T00:55:46;21.73;;;11.40;;
12122;SDS011;6125;59.628;17.852;2024-02-23T00:58:15;22.13;;;12.17;;
12122;SDS011;6125;59.628;17.852;2024-02-23T01:00:43;20.63;;;11.30;;
12122;SDS011;6125;59.628;17.852;2024-02-23T01:03:19;18.50;;;10.40;;
12122;SDS011;6125;59.628;17.852;2024-02-23T01:05:47;19.37;;;10.03;;
12122;SDS011;6125;59.628;17.852;2024-02-23T01:08:17;17.63;;;9.80;;
12122;SDS011;6125;59.628;17.852;2024-02-23T01:10:52;21.43;;;10.67;;
12122;SDS011;6125;59.628;17.852;2024-02-23T01:13:20;17.30;;;10.60;;
12122;SDS011;6125;59.628;17.852;2024-02-23T01:15:48;20.20;;;9.73;;
12122;SDS011;6125;59.628;17.852;2024-02-23T01:18:23;18.57;;;9.73;;
12122;SDS011;6125;59.628;17.852;2024-02-23T01:20:52;18.47;;;9.90;;
12122;SDS011;6125;59.628;17.852;2024-02-23T01:23:22;17.63;;;9.00;;
12122;SDS011;6125;59.628;17.852;2024-02-23T01:25:56;15.00;;;8.80;;
12122;SDS011;6125;59.628;17.852;2024-02-23T01:28:26;20.23;;;8.30;;
12122;SDS011;6125;59.628;17.852;2024-02-23T01:30:54;15.23;;;8.20;;
12122;SDS011;6125;59.628;17.852;2024-02-23T01:33:29;17.57;;;8.73;;
12122;SDS011;6125;59.628;17.852;2024-02-23T01:35:57;15.80;;;8.67;;
12122;SDS011;6125;59.628;17.852;2024-02-23T01:38:26;17.90;;;9.07;;
12122;SDS011;6125;59.628;17.852;2024-02-23T01:41:04;15.57;;;8.33;;
12122;SDS011;6125;59.628;17.852;2024-02-23T01:43:33;16.33;;;8.53;;
12122;SDS011;6125;59.628;17.852;2024-02-23T01:46:02;13.93;;;7.93;;
12122;SDS011;6125;59.628;17.852;2024-02-23T01:48:39;15.23;;;9.17;;
12122;SDS011;6125;59.628;17.852;2024-02-23T01:51:08;13.33;;;8.50;;
12122;SDS011;6125;59.628;17.852;2024-02-23T01:53:38;16.03;;;9.07;;
12122;SDS011;6125;59.628;17.852;2024-02-23T01:56:13;16.03;;;9.93;;
12122;SDS011;6125;59.628;17.852;2024-02-23T01:58:45;16.50;;;9.30;;
12122;SDS011;6125;59.628;17.852;2024-02-23T02:01:22;13.23;;;8.87;;
12122;SDS011;6125;59.628;17.852;2024-02-23T02:03:51;16.23;;;9.03;;
12122;SDS011;6125;59.628;17.852;2024-02-23T02:06:20;16.47;;;8.83;;
12122;SDS011;6125;59.628;17.852;2024-02-23T02:08:56;16.13;;;8.23;;
12122;SDS011;6125;59.628;17.852;2024-02-23T02:11:24;18.00;;;8.87;;
12122;SDS011;6125;59.628;17.852;2024-02-23T02:13:53;18.40;;;9.00;;
12122;SDS011;6125;59.628;17.852;2024-02-23T02:16:28;13.80;;;8.83;;
12122;SDS011;6125;59.628;17.852;2024-02-23T02:18:58;17.60;;;9.50;;
12122;SDS011;6125;59.628;17.852;2024-02-23T02:21:26;17.37;;;9.50;;
12122;SDS011;6125;59.628;17.852;2024-02-23T02:24:03;17.27;;;9.93;;
12122;SDS011;6125;59.628;17.852;2024-02-23T02:26:32;17.07;;;10.30;;
12122;SDS011;6125;59.628;17.852;2024-02-23T02:29:01;17.53;;;9.00;;
12122;SDS011;6125;59.628;17.852;2024-02-23T02:31:37;19.73;;;10.57;;
12122;SDS011;6125;59.628;17.852;2024-02-23T02:34:05;16.47;;;11.00;;
12122;SDS011;6125;59.628;17.852;2024-02-23T02:36:34;21.20;;;10.73;;
12122;SDS011;6125;59.628;17.852;2024-02-23T02:39:10;22.67;;;11.53;;
12122;SDS011;6125;59.628;17.852;2024-02-23T02:44:13;18.23;;;11.00;;
12122;SDS011;6125;59.628;17.852;2024-02-23T02:46:49;17.37;;;10.53;;
12122;SDS011;6125;59.628;17.852;2024-02-23T02:49:17;19.80;;;12.30;;
12122;SDS011;6125;59.628;17.852;2024-02-23T02:51:46;20.13;;;12.03;;
12122;SDS011;6125;59.628;17.852;2024-02-23T02:54:22;17.63;;;9.87;;
12122;SDS011;6125;59.628;17.852;2024-02-23T02:56:51;20.67;;;12.00;;
12122;SDS011;6125;59.628;17.852;2024-02-23T02:59:20;22.03;;;11.73;;
12122;SDS011;6125;59.628;17.852;2024-02-23T03:01:56;24.53;;;11.97;;
12122;SDS011;6125;59.628;17.852;2024-02-23T03:04:24;17.37;;;11.03;;
12122;SDS011;6125;59.628;17.852;2024-02-23T03:06:53;18.53;;;11.87;;
12122;SDS011;6125;59.628;17.852;2024-02-23T03:09:29;19.27;;;10.90;;
12122;SDS011;6125;59.628;17.852;2024-02-23T03:11:57;18.60;;;10.47;;
12122;SDS011;6125;59.628;17.852;2024-02-23T03:14:25;20.60;;;11.60;;
12122;SDS011;6125;59.628;17.852;2024-02-23T03:17:03;18.83;;;11.73;;
12122;SDS011;6125;59.628;17.852;2024-02-23T03:19:31;21.00;;;10.80;;
12122;SDS011;6125;59.628;17.852;2024-02-23T03:22:00;19.93;;;10.67;;
12122;SDS011;6125;59.628;17.852;2024-02-23T03:24:36;21.80;;;11.10;;
12122;SDS011;6125;59.628;17.852;2024-02-23T03:27:04;16.50;;;9.80;;
12122;SDS011;6125;59.628;17.852;2024-02-23T03:29:32;17.80;;;10.30;;
12122;SDS011;6125;59.628;17.852;2024-02-23T03:32:08;18.40;;;10.33;;
12122;SDS011;6125;59.628;17.852;2024-02-23T03:34:36;20.30;;;11.43;;
12122;SDS011;6125;59.628;17.852;2024-02-23T03:37:05;17.37;;;10.63;;
12122;SDS011;6125;59.628;17.852;2024-02-23T03:39:41;22.63;;;11.83;;
12122;SDS011;6125;59.628;17.852;2024-02-23T03:42:09;16.53;;;9.57;;
12122;SDS011;6125;59.628;17.852;2024-02-23T03:44:38;16.23;;;10.13;;
12122;SDS011;6125;59.628;17.852;2024-02-23T03:47:15;15.43;;;9.27;;
12122;SDS011;6125;59.628;17.852;2024-02-23T03:49:43;19.73;;;9.83;;
12122;SDS011;6125;59.628;17.852;2024-02-23T03:52:12;15.23;;;9.03;;
12122;SDS011;6125;59.628;17.852;2024-02-23T03:54:48;14.47;;;8.80;;
12122;SDS011;6125;59.628;17.852;2024-02-23T03:57:18;13.10;;;8.67;;
12122;SDS011;6125;59.628;17.852;2024-02-23T03:59:51;12.97;;;8.40;;
12122;SDS011;6125;59.628;17.852;2024-02-23T04:02:26;14.67;;;8.50;;
12122;SDS011;6125;59.628;17.852;2024-02-23T04:04:54;12.83;;;9.13;;
12122;SDS011;6125;59.628;17.852;2024-02-23T04:07:22;14.80;;;8.60;;
12122;SDS011;6125;59.628;17.852;2024-02-23T04:09:58;13.07;;;8.67;;
12122;SDS011;6125;59.628;17.852;2024-02-23T04:12:26;14.23;;;8.57;;
12122;SDS011;6125;59.628;17.852;2024-02-23T04:14:54;12.70;;;8.03;;
12122;SDS011;6125;59.628;17.852;2024-02-23T04:17:29;11.10;;;8.00;;
12122;SDS011;6125;59.628;17.852;2024-02-23T04:19:57;14.00;;;8.33;;
12122;SDS011;6125;59.628;17.852;2024-02-23T04:22:28;12.57;;;8.13;;
12122;SDS011;6125;59.628;17.852;2024-02-23T04:25:04;11.47;;;8.50;;
12122;SDS011;6125;59.628;17.852;2024-02-23T04:27:33;13.37;;;7.77;;
12122;SDS011;6125;59.628;17.852;2024-02-23T04:30:01;13.97;;;9.03;;
12122;SDS011;6125;59.628;17.852;2024-02-23T04:32:36;17.23;;;9.60;;
12122;SDS011;6125;59.628;17.852;2024-02-23T04:35:04;19.57;;;11.47;;
12122;SDS011;6125;59.628;17.852;2024-02-23T04:37:33;21.50;;;11.53;;
12122;SDS011;6125;59.628;17.852;2024-02-23T04:40:09;21.77;;;12.10;;
12122;SDS011;6125;59.628;17.852;2024-02-23T04:42:39;21.43;;;11.87;;
12122;SDS011;6125;59.628;17.852;2024-02-23T04:45:07;23.87;;;12.93;;
12122;SDS011;6125;59.628;17.852;2024-02-23T04:47:42;17.37;;;10.90;;
12122;SDS011;6125;59.628;17.852;2024-02-23T04:50:10;24.17;;;10.70;;
12122;SDS011;6125;59.628;17.852;2024-02-23T04:52:39;18.43;;;10.80;;
12122;SDS011;6125;59.628;17.852;2024-02-23T04:55:15;19.93;;;10.83;;
12122;SDS011;6125;59.628;17.852;2024-02-23T04:57:43;15.40;;;9.10;;
12122;SDS011;6125;59.628;17.852;2024-02-23T05:00:12;16.27;;;8.80;;
12122;SDS011;6125;59.628;17.852;2024-02-23T05:02:47;15.87;;;9.23;;
12122;SDS011;6125;59.628;17.852;2024-02-23T05:05:16;13.00;;;8.87;;
12122;SDS011;6125;59.628;17.852;2024-02-23T05:07:44;14.20;;;7.97;;
12122;SDS011;6125;59.628;17.852;2024-02-23T05:10:20;10.43;;;6.77;;
12122;SDS011;6125;59.628;17.852;2024-02-23T05:12:49;12.60;;;7.33;;
12122;SDS011;6125;59.628;17.852;2024-02-23T05:15:17;12.73;;;7.20;;
12122;SDS011;6125;59.628;17.852;2024-02-23T05:17:52;12.70;;;7.67;;
12122;SDS011;6125;59.628;17.852;2024-02-23T05:20:20;11.60;;;7.13;;
12122;SDS011;6125;59.628;17.852;2024-02-23T05:22:48;12.83;;;7.50;;
12122;SDS011;6125;59.628;17.852;2024-02-23T05:25:24;14.13;;;7.53;;
12122;SDS011;6125;59.628;17.852;2024-02-23T05:27:53;11.17;;;7.23;;
12122;SDS011;6125;59.628;17.852;2024-02-23T05:30:21;10.07;;;6.90;;
12122;SDS011;6125;59.628;17.852;2024-02-23T05:32:56;9.80;;;6.40;;
12122;SDS011;6125;59.628;17.852;2024-02-23T05:35:24;11.47;;;6.10;;
12122;SDS011;6125;59.628;17.852;2024-02-23T05:37:53;7.77;;;5.90;;
12122;SDS011;6125;59.628;17.852;2024-02-23T05:40:29;7.20;;;5.07;;
12122;SDS011;6125;59.628;17.852;2024-02-23T05:42:57;7.43;;;5.20;;
12122;SDS011;6125;59.628;17.852;2024-02-23T05:45:26;6.73;;;5.00;;
12122;SDS011;6125;59.628;17.852;2024-02-23T05:48:01;6.03;;;4.57;;
12122;SDS011;6125;59.628;17.852;2024-02-23T05:50:30;8.13;;;5.07;;
12122;SDS011;6125;59.628;17.852;2024-02-23T05:52:58;6.20;;;5.00;;
12122;SDS011;6125;59.628;17.852;2024-02-23T05:55:34;8.13;;;5.20;;
12122;SDS011;6125;59.628;17.852;2024-02-23T05:58:02;7.20;;;5.07;;
12122;SDS011;6125;59.628;17.852;2024-02-23T06:00:31;7.97;;;5.53;;
12122;SDS011;6125;59.628;17.852;2024-02-23T06:03:07;8.23;;;5.77;;
12122;SDS011;6125;59.628;17.852;2024-02-23T06:05:35;9.20;;;5.83;;
12122;SDS011;6125;59.628;17.852;2024-02-23T06:08:04;10.80;;;6.90;;
12122;SDS011;6125;59.628;17.852;2024-02-23T06:10:41;12.40;;;6.87;;
12122;SDS011;6125;59.628;17.852;2024-02-23T06:13:10;12.53;;;7.73;;
12122;SDS011;6125;59.628;17.852;2024-02-23T06:15:38;9.50;;;6.20;;
12122;SDS011;6125;59.628;17.852;2024-02-23T06:18:14;10.50;;;7.23;;
12122;SDS011;6125;59.628;17.852;2024-02-23T06:20:42;11.03;;;7.00;;
12122;SDS011;6125;59.628;17.852;2024-02-23T06:23:10;12.73;;;7.70;;
12122;SDS011;6125;59.628;17.852;2024-02-23T06:25:47;10.97;;;7.17;;
12122;SDS011;6125;59.628;17.852;2024-02-23T06:28:15;9.57;;;6.90;;
12122;SDS011;6125;59.628;17.852;2024-02-23T06:30:44;10.80;;;6.00;;
12122;SDS011;6125;59.628;17.852;2024-02-23T06:33:19;13.03;;;6.73;;
12122;SDS011;6125;59.628;17.852;2024-02-23T06:35:47;10.20;;;7.07;;
12122;SDS011;6125;59.628;17.852;2024-02-23T06:38:16;9.57;;;6.53;;
12122;SDS011;6125;59.628;17.852;2024-02-23T06:40:52;11.57;;;6.40;;
12122;SDS011;6125;59.628;17.852;2024-02-23T06:43:22;13.80;;;7.07;;
12122;SDS011;6125;59.628;17.852;2024-02-23T06:45:50;10.40;;;6.33;;
12122;SDS011;6125;59.628;17.852;2024-02-23T06:48:25;11.00;;;6.83;;
12122;SDS011;6125;59.628;17.852;2024-02-23T06:50:56;9.90;;;7.00;;
12122;SDS011;6125;59.628;17.852;2024-02-23T06:53:24;13.10;;;7.37;;
12122;SDS011;6125;59.628;17.852;2024-02-23T06:56:00;7.97;;;5.87;;
12122;SDS011;6125;59.628;17.852;2024-02-23T06:58:29;9.53;;;5.53;;
12122;SDS011;6125;59.628;17.852;2024-02-23T07:00:57;9.33;;;6.17;;
12122;SDS011;6125;59.628;17.852;2024-02-23T07:03:33;8.80;;;5.80;;
12122;SDS011;6125;59.628;17.852;2024-02-23T07:06:02;8.07;;;5.63;;
12122;SDS011;6125;59.628;17.852;2024-02-23T07:08:31;10.13;;;6.07;;
12122;SDS011;6125;59.628;17.852;2024-02-23T07:11:06;9.93;;;6.23;;
12122;SDS011;6125;59.628;17.852;2024-02-23T07:13:42;10.33;;;6.23;;
12122;SDS011;6125;59.628;17.852;2024-02-23T07:16:18;8.20;;;6.17;;
12122;SDS011;6125;59.628;17.852;2024-02-23T07:18:46;13.50;;;7.30;;
12122;SDS011;6125;59.628;17.852;2024-02-23T07:21:29;8.93;;;6.20;;
12122;SDS011;6125;59.628;17.852;2024-02-23T07:23:57;13.27;;;7.47;;
12122;SDS011;6125;59.628;17.852;2024-02-23T07:26:27;14.40;;;7.60;;
12122;SDS011;6125;59.628;17.852;2024-02-23T07:29:02;9.03;;;6.43;;
12122;SDS011;6125;59.628;17.852;2024-02-23T07:31:30;9.20;;;6.30;;
12122;SDS011;6125;59.628;17.852;2024-02-23T07:33:58;13.20;;;7.90;;
12122;SDS011;6125;59.628;17.852;2024-02-23T07:36:33;12.77;;;7.40;;
12122;SDS011;6125;59.628;17.852;2024-02-23T07:39:01;10.70;;;7.37;;
12122;SDS011;6125;59.628;17.852;2024-02-23T07:41:31;11.60;;;7.67;;
12122;SDS011;6125;59.628;17.852;2024-02-23T07:44:06;11.17;;;7.53;;
12122;SDS011;6125;59.628;17.852;2024-02-23T07:46:34;17.80;;;8.60;;
12122;SDS011;6125;59.628;17.852;2024-02-23T07:49:03;13.87;;;8.90;;
12122;SDS011;6125;59.628;17.852;2024-02-23T07:54:07;12.83;;;8.27;;
12122;SDS011;6125;59.628;17.852;2024-02-23T07:56:37;15.47;;;9.33;;
12122;SDS011;6125;59.628;17.852;2024-02-23T07:59:12;14.97;;;8.80;;
12122;SDS011;6125;59.628;17.852;2024-02-23T08:01:40;14.93;;;9.60;;
12122;SDS011;6125;59.628;17.852;2024-02-23T08:04:08;16.00;;;9.13;;
12122;SDS011;6125;59.628;17.852;2024-02-23T08:06:43;15.00;;;9.67;;
12122;SDS011;6125;59.628;17.852;2024-02-23T08:09:11;15.87;;;10.43;;
12122;SDS011;6125;59.628;17.852;2024-02-23T08:11:41;18.50;;;9.97;;
12122;SDS011;6125;59.628;17.852;2024-02-23T08:14:16;12.93;;;9.17;;
12122;SDS011;6125;59.628;17.852;2024-02-23T08:16:44;15.00;;;9.43;;
12122;SDS011;6125;59.628;17.852;2024-02-23T08:19:13;17.37;;;9.53;;
12122;SDS011;6125;59.628;17.852;2024-02-23T08:21:47;14.53;;;8.90;;
12122;SDS011;6125;59.628;17.852;2024-02-23T08:24:15;16.80;;;9.43;;
12122;SDS011;6125;59.628;17.852;2024-02-23T08:26:45;17.00;;;9.20;;
12122;SDS011;6125;59.628;17.852;2024-02-23T08:29:22;14.30;;;9.10;;
12122;SDS011;6125;59.628;17.852;2024-02-23T08:31:50;12.60;;;8.00;;
12122;SDS011;6125;59.628;17.852;2024-02-23T08:34:18;12.73;;;8.03;;
12122;SDS011;6125;59.628;17.852;2024-02-23T08:36:53;11.27;;;7.33;;
12122;SDS011;6125;59.628;17.852;2024-02-23T08:39:21;8.33;;;6.80;;
12122;SDS011;6125;59.628;17.852;2024-02-23T08:41:51;9.97;;;6.60;;
12122;SDS011;6125;59.628;17.852;2024-02-23T08:44:27;8.57;;;6.00;;
12122;SDS011;6125;59.628;17.852;2024-02-23T08:46:56;9.70;;;6.53;;
12122;SDS011;6125;59.628;17.852;2024-02-23T08:49:24;10.43;;;6.43;;
12122;SDS011;6125;59.628;17.852;2024-02-23T08:51:59;10.80;;;7.00;;
12122;SDS011;6125;59.628;17.852;2024-02-23T08:54:28;9.63;;;6.20;;
12122;SDS011;6125;59.628;17.852;2024-02-23T08:56:58;10.17;;;6.30;;
12122;SDS011;6125;59.628;17.852;2024-02-23T08:59:33;8.83;;;6.23;;
12122;SDS011;6125;59.628;17.852;2024-02-23T09:02:02;11.20;;;7.37;;
12122;SDS011;6125;59.628;17.852;2024-02-23T09:04:30;9.17;;;7.30;;
12122;SDS011;6125;59.628;17.852;2024-02-23T09:07:06;9.80;;;6.93;;
12122;SDS011;6125;59.628;17.852;2024-02-23T09:09:35;11.03;;;7.47;;
12122;SDS011;6125;59.628;17.852;2024-02-23T09:12:05;10.33;;;7.27;;
12122;SDS011;6125;59.628;17.852;2024-02-23T09:14:43;11.90;;;6.87;;
12122;SDS011;6125;59.628;17.852;2024-02-23T09:17:12;11.77;;;7.63;;
12122;SDS011;6125;59.628;17.852;2024-02-23T09:19:40;9.63;;;6.87;;
12122;SDS011;6125;59.628;17.852;2024-02-23T09:22:15;11.03;;;7.43;;
12122;SDS011;6125;59.628;17.852;2024-02-23T09:24:43;10.03;;;6.47;;
12122;SDS011;6125;59.628;17.852;2024-02-23T09:27:13;10.37;;;7.07;;
12122;SDS011;6125;59.628;17.852;2024-02-23T09:29:48;10.97;;;7.07;;
12122;SDS011;6125;59.628;17.852;2024-02-23T09:32:16;12.70;;;7.33;;
12122;SDS011;6125;59.628;17.852;2024-02-23T09:34:45;11.73;;;7.20;;
12122;SDS011;6125;59.628;17.852;2024-02-23T09:37:20;10.17;;;7.23;;
12122;SDS011;6125;59.628;17.852;2024-02-23T09:39:48;10.53;;;6.83;;
12122;SDS011;6125;59.628;17.852;2024-02-23T09:42:18;8.57;;;6.90;;
12122;SDS011;6125;59.628;17.852;2024-02-23T09:44:59;9.67;;;6.97;;
12122;SDS011;6125;59.628;17.852;2024-02-23T09:47:27;9.20;;;6.43;;
12122;SDS011;6125;59.628;17.852;2024-02-23T09:49:57;9.33;;;6.40;;
12122;SDS011;6125;59.628;17.852;2024-02-23T09:52:34;10.90;;;5.93;;
12122;SDS011;6125;59.628;17.852;2024-02-23T09:55:02;8.00;;;5.53;;
12122;SDS011;6125;59.628;17.852;2024-02-23T09:57:35;8.97;;;6.00;;
12122;SDS011;6125;59.628;17.852;2024-02-23T10:00:12;7.73;;;5.83;;
12122;SDS011;6125;59.628;17.852;2024-02-23T10:02:46;7.77;;;5.40;;
12122;SDS011;6125;59.628;17.852;2024-02-23T10:05:23;7.90;;;5.40;;
12122;SDS011;6125;59.628;17.852;2024-02-23T10:08:00;6.67;;;5.30;;
12122;SDS011;6125;59.628;17.852;2024-02-23T10:10:37;6.70;;;5.17;;
12122;SDS011;6125;59.628;17.852;2024-02-23T10:13:07;7.67;;;5.30;;
12122;SDS011;6125;59.628;17.852;2024-02-23T10:15:35;6.77;;;5.37;;
12122;SDS011;6125;59.628;17.852;2024-02-23T10:18:31;5.33;;;4.63;;
12122;SDS011;6125;59.628;17.852;2024-02-23T10:21:00;7.93;;;4.83;;
12122;SDS011;6125;59.628;17.852;2024-02-23T10:23:35;7.13;;;4.17;;
12122;SDS011;6125;59.628;17.852;2024-02-23T10:26:04;7.43;;;4.37;;
12122;SDS011;6125;59.628;17.852;2024-02-23T10:28:34;7.17;;;4.77;;
12122;SDS011;6125;59.628;17.852;2024-02-23T10:31:11;6.97;;;4.30;;
12122;SDS011;6125;59.628;17.852;2024-02-23T10:33:39;5.53;;;3.93;;
12122;SDS011;6125;59.628;17.852;2024-02-23T10:36:08;5.20;;;3.83;;
12122;SDS011;6125;59.628;17.852;2024-02-23T10:38:45;8.73;;;4.67;;
12122;SDS011;6125;59.628;17.852;2024-02-23T10:41:14;6.77;;;4.07;;
12122;SDS011;6125;59.628;17.852;2024-02-23T10:43:47;9.73;;;4.40;;
12122;SDS011;6125;59.628;17.852;2024-02-23T10:46:23;6.53;;;3.77;;
12122;SDS011;6125;59.628;17.852;2024-02-23T10:48:51;5.27;;;4.03;;
12122;SDS011;6125;59.628;17.852;2024-02-23T10:51:22;5.03;;;3.73;;
12122;SDS011;6125;59.628;17.852;2024-02-23T10:53:58;6.63;;;4.07;;
12122;SDS011;6125;59.628;17.852;2024-02-23T10:56:27;4.97;;;3.47;;
12122;SDS011;6125;59.628;17.852;2024-02-23T10:58:57;5.97;;;3.17;;
12122;SDS011;6125;59.628;17.852;2024-02-23T11:01:31;7.67;;;3.30;;
12122;SDS011;6125;59.628;17.852;2024-02-23T11:04:01;5.17;;;3.60;;
12122;SDS011;6125;59.628;17.852;2024-02-23T11:06:30;6.67;;;3.23;;
12122;SDS011;6125;59.628;17.852;2024-02-23T11:09:08;4.63;;;2.87;;
12122;SDS011;6125;59.628;17.852;2024-02-23T11:11:40;3.57;;;2.80;;
12122;SDS011;6125;59.628;17.852;2024-02-23T11:14:31;6.80;;;2.63;;
12122;SDS011;6125;59.628;17.852;2024-02-23T11:17:00;5.70;;;3.03;;
12122;SDS011;6125;59.628;17.852;2024-02-23T11:19:35;5.50;;;2.43;;
12122;SDS011;6125;59.628;17.852;2024-02-23T11:22:05;4.90;;;2.67;;
12122;SDS011;6125;59.628;17.852;2024-02-23T11:27:29;3.20;;;2.53;;
12122;SDS011;6125;59.628;17.852;2024-02-23T11:30:07;4.43;;;2.60;;
12122;SDS011;6125;59.628;17.852;2024-02-23T11:35:03;4.37;;;2.03;;
12122;SDS011;6125;59.628;17.852;2024-02-23T11:37:44;2.40;;;1.60;;
12122;SDS011;6125;59.628;17.852;2024-02-23T11:40:17;2.30;;;1.60;;
12122;SDS011;6125;59.628;17.852;2024-02-23T11:48:17;6.20;;;1.90;;
12122;SDS011;6125;59.628;17.852;2024-02-23T11:50:52;3.00;;;1.70;;
12122;SDS011;6125;59.628;17.852;2024-02-23T11:53:20;2.33;;;1.60;;
12122;SDS011;6125;59.628;17.852;2024-02-23T11:55:50;2.87;;;1.70;;
12122;SDS011;6125;59.628;17.852;2024-02-23T11:58:25;2.70;;;1.60;;
12122;SDS011;6125;59.628;17.852;2024-02-23T12:00:54;3.97;;;1.60;;
12122;SDS011;6125;59.628;17.852;2024-02-23T12:03:23;2.93;;;1.40;;
12122;SDS011;6125;59.628;17.852;2024-02-23T12:06:00;3.57;;;1.37;;
12122;SDS011;6125;59.628;17.852;2024-02-23T12:08:29;3.13;;;1.40;;
12122;SDS011;6125;59.628;17.852;2024-02-23T12:11:11;2.63;;;1.23;;
12122;SDS011;6125;59.628;17.852;2024-02-23T12:13:40;3.27;;;1.23;;
12122;SDS011;6125;59.628;17.852;2024-02-23T12:16:09;1.90;;;1.23;;
12122;SDS011;6125;59.628;17.852;2024-02-23T12:21:16;3.87;;;1.37;;
12122;SDS011;6125;59.628;17.852;2024-02-23T12:23:54;4.13;;;1.10;;
12122;SDS011;6125;59.628;17.852;2024-02-23T12:26:22;2.73;;;1.53;;
12122;SDS011;6125;59.628;17.852;2024-02-23T12:28:52;2.83;;;1.20;;
12122;SDS011;6125;59.628;17.852;2024-02-23T12:31:34;3.10;;;1.30;;
12122;SDS011;6125;59.628;17.852;2024-02-23T12:34:03;4.20;;;1.43;;
12122;SDS011;6125;59.628;17.852;2024-02-23T12:36:31;2.77;;;1.40;;
12122;SDS011;6125;59.628;17.852;2024-02-23T12:39:10;3.60;;;1.33;;
12122;SDS011;6125;59.628;17.852;2024-02-23T12:41:38;2.53;;;1.27;;
12122;SDS011;6125;59.628;17.852;2024-02-23T12:46:54;2.67;;;1.30;;
12122;SDS011;6125;59.628;17.852;2024-02-23T12:49:30;2.17;;;1.37;;
12122;SDS011;6125;59.628;17.852;2024-02-23T12:52:01;3.80;;;1.20;;
12122;SDS011;6125;59.628;17.852;2024-02-23T12:54:36;2.93;;;1.00;;
12122;SDS011;6125;59.628;17.852;2024-02-23T12:59:34;2.60;;;1.10;;
12122;SDS011;6125;59.628;17.852;2024-02-23T13:02:09;2.00;;;1.00;;
12122;SDS011;6125;59.628;17.852;2024-02-23T13:09:51;3.60;;;1.17;;
12122;SDS011;6125;59.628;17.852;2024-02-23T13:12:25;1.80;;;0.90;;
12122;SDS011;6125;59.628;17.852;2024-02-23T13:14:54;2.50;;;1.40;;
12122;SDS011;6125;59.628;17.852;2024-02-23T13:17:22;4.03;;;1.10;;
12122;SDS011;6125;59.628;17.852;2024-02-23T13:19:56;2.70;;;1.17;;
12122;SDS011;6125;59.628;17.852;2024-02-23T13:25:12;3.83;;;1.37;;
12122;SDS011;6125;59.628;17.852;2024-02-23T13:27:41;3.77;;;1.40;;
12122;SDS011;6125;59.628;17.852;2024-02-23T13:30:09;2.50;;;1.10;;
12122;SDS011;6125;59.628;17.852;2024-02-23T13:32:44;2.97;;;1.13;;
12122;SDS011;6125;59.628;17.852;2024-02-23T13:35:12;1.60;;;1.20;;
12122;SDS011;6125;59.628;17.852;2024-02-23T13:37:43;3.67;;;1.10;;
12122;SDS011;6125;59.628;17.852;2024-02-23T13:40:19;3.30;;;1.30;;
12122;SDS011;6125;59.628;17.852;2024-02-23T13:42:48;3.87;;;1.33;;
12122;SDS011;6125;59.628;17.852;2024-02-23T13:50:39;4.87;;;1.40;;
12122;SDS011;6125;59.628;17.852;2024-02-23T13:53:14;4.77;;;1.20;;
12122;SDS011;6125;59.628;17.852;2024-02-23T13:55:44;3.70;;;1.30;;
12122;SDS011;6125;59.628;17.852;2024-02-23T13:58:13;3.90;;;1.50;;
12122;SDS011;6125;59.628;17.852;2024-02-23T14:00:47;4.67;;;1.40;;
12122;SDS011;6125;59.628;17.852;2024-02-23T14:03:16;7.80;;;2.00;;
12122;SDS011;6125;59.628;17.852;2024-02-23T14:08:41;2.73;;;1.87;;
12122;SDS011;6125;59.628;17.852;2024-02-23T14:11:19;3.90;;;1.40;;
12122;SDS011;6125;59.628;17.852;2024-02-23T14:13:47;3.40;;;1.57;;
12122;SDS011;6125;59.628;17.852;2024-02-23T14:16:17;2.70;;;1.03;;
12122;SDS011;6125;59.628;17.852;2024-02-23T14:21:27;5.30;;;1.93;;
12122;SDS011;6125;59.628;17.852;2024-02-23T14:24:02;3.10;;;1.47;;
12122;SDS011;6125;59.628;17.852;2024-02-23T14:26:33;3.73;;;1.60;;
12122;SDS011;6125;59.628;17.852;2024-02-23T14:29:01;5.20;;;1.20;;
12122;SDS011;6125;59.628;17.852;2024-02-23T14:31:36;3.00;;;1.10;;
12122;SDS011;6125;59.628;17.852;2024-02-23T14:36:40;4.33;;;1.63;;
12122;SDS011;6125;59.628;17.852;2024-02-23T14:39:16;4.33;;;1.20;;
12122;SDS011;6125;59.628;17.852;2024-02-23T14:41:47;5.90;;;1.30;;
12122;SDS011;6125;59.628;17.852;2024-02-23T14:44:16;6.87;;;1.60;;
12122;SDS011;6125;59.628;17.852;2024-02-23T14:46:50;6.63;;;1.70;;
12122;SDS011;6125;59.628;17.852;2024-02-23T14:49:18;3.27;;;1.70;;
12122;SDS011;6125;59.628;17.852;2024-02-23T14:51:47;3.67;;;1.20;;
12122;SDS011;6125;59.628;17.852;2024-02-23T14:54:21;4.57;;;1.07;;
12122;SDS011;6125;59.628;17.852;2024-02-23T14:56:51;5.90;;;1.57;;
12122;SDS011;6125;59.628;17.852;2024-02-23T14:59:19;3.43;;;1.20;;
12122;SDS011;6125;59.628;17.852;2024-02-23T15:01:53;7.00;;;1.30;;
12122;SDS011;6125;59.628;17.852;2024-02-23T15:04:22;5.40;;;1.57;;
12122;SDS011;6125;59.628;17.852;2024-02-23T15:06:50;6.10;;;1.23;;
12122;SDS011;6125;59.628;17.852;2024-02-23T15:09:25;10.03;;;1.30;;
12122;SDS011;6125;59.628;17.852;2024-02-23T15:11:55;6.23;;;1.43;;
12122;SDS011;6125;59.628;17.852;2024-02-23T15:14:23;4.30;;;1.17;;
12122;SDS011;6125;59.628;17.852;2024-02-23T15:16:58;10.63;;;1.73;;
12122;SDS011;6125;59.628;17.852;2024-02-23T15:19:26;5.50;;;1.77;;
12122;SDS011;6125;59.628;17.852;2024-02-23T15:21:55;11.77;;;2.17;;
12122;SDS011;6125;59.628;17.852;2024-02-23T15:24:32;8.73;;;1.50;;
12122;SDS011;6125;59.628;17.852;2024-02-23T15:27:05;5.53;;;2.10;;
12122;SDS011;6125;59.628;17.852;2024-02-23T15:29:39;4.23;;;1.60;;
12122;SDS011;6125;59.628;17.852;2024-02-23T15:32:09;5.20;;;1.80;;
12122;SDS011;6125;59.628;17.852;2024-02-23T15:34:38;3.57;;;1.70;;
12122;SDS011;6125;59.628;17.852;2024-02-23T15:37:14;5.07;;;1.57;;
12122;SDS011;6125;59.628;17.852;2024-02-23T15:39:43;4.53;;;1.30;;
12122;SDS011;6125;59.628;17.852;2024-02-23T15:42:13;6.93;;;1.57;;
12122;SDS011;6125;59.628;17.852;2024-02-23T15:44:49;3.87;;;1.50;;
12122;SDS011;6125;59.628;17.852;2024-02-23T15:47:18;2.73;;;1.40;;